sensor_id;sensor_type;location;lat;lon;timestamp;P1;durP1;ratioP1;P2;durP2;ratioP2
75356;SDS011;63946;51.986;5.930;2023-07-08T06:04:14;5.13;;;2.60;;
75356;SDS011;63946;51.986;5.930;2023-07-08T06:06:47;3.35;;;2.03;;
75356;SDS011;63946;51.986;5.930;2023-07-08T06:09:18;3.05;;;2.35;;
75356;SDS011;63946;51.986;5.930;2023-07-08T06:11:52;2.92;;;2.53;;
75356;SDS011;63946;51.986;5.930;2023-07-08T06:14:21;3.53;;;2.47;;
75356;SDS011;63946;51.986;5.930;2023-07-08T06:17:04;4.07;;;2.70;;
75356;SDS011;63946;51.986;5.930;2023-07-08T06:19:35;3.78;;;2.97;;
75356;SDS011;63946;51.986;5.930;2023-07-08T06:22:16;3.67;;;2.55;;
75356;SDS011;63946;51.986;5.930;2023-07-08T06:24:45;4.18;;;2.63;;
75356;SDS011;63946;51.986;5.930;2023-07-08T06:27:20;7.75;;;2.70;;
75356;SDS011;63946;51.986;5.930;2023-07-08T06:29:54;5.32;;;2.80;;
75356;SDS011;63946;51.986;5.930;2023-07-08T06:32:48;4.18;;;2.63;;
75356;SDS011;63946;51.986;5.930;2023-07-08T06:35:19;4.97;;;2.28;;
75356;SDS011;63946;51.986;5.930;2023-07-08T06:37:54;4.70;;;2.35;;
75356;SDS011;63946;51.986;5.930;2023-07-08T06:40:34;4.47;;;2.92;;
75356;SDS011;63946;51.986;5.930;2023-07-08T06:43:10;3.50;;;2.50;;
75356;SDS011;63946;51.986;5.930;2023-07-08T06:45:53;3.10;;;2.45;;
75356;SDS011;63946;51.986;5.930;2023-07-08T06:48:26;5.20;;;2.67;;
75356;SDS011;63946;51.986;5.930;2023-07-08T06:50:56;5.10;;;3.33;;
75356;SDS011;63946;51.986;5.930;2023-07-08T06:53:25;4.53;;;2.75;;
75356;SDS011;63946;51.986;5.930;2023-07-08T06:55:57;6.82;;;3.13;;
75356;SDS011;63946;51.986;5.930;2023-07-08T06:58:26;5.68;;;3.03;;
75356;SDS011;63946;51.986;5.930;2023-07-08T07:01:03;6.15;;;3.15;;
75356;SDS011;63946;51.986;5.930;2023-07-08T07:03:42;4.18;;;2.90;;
75356;SDS011;63946;51.986;5.930;2023-07-08T07:06:20;3.60;;;2.60;;
75356;SDS011;63946;51.986;5.930;2023-07-08T07:08:51;4.13;;;2.67;;
75356;SDS011;63946;51.986;5.930;2023-07-08T07:11:23;3.88;;;2.47;;
75356;SDS011;63946;51.986;5.930;2023-07-08T07:16:24;5.03;;;2.80;;
75356;SDS011;63946;51.986;5.930;2023-07-08T07:18:53;5.03;;;3.00;;
75356;SDS011;63946;51.986;5.930;2023-07-08T07:21:24;3.10;;;2.72;;
75356;SDS011;63946;51.986;5.930;2023-07-08T07:23:53;8.52;;;3.20;;
75356;SDS011;63946;51.986;5.930;2023-07-08T07:26:24;4.60;;;2.75;;
75356;SDS011;63946;51.986;5.930;2023-07-08T07:28:57;3.30;;;2.38;;
75356;SDS011;63946;51.986;5.930;2023-07-08T07:31:28;4.32;;;2.95;;
75356;SDS011;63946;51.986;5.930;2023-07-08T07:34:00;3.70;;;2.60;;
75356;SDS011;63946;51.986;5.930;2023-07-08T07:36:32;4.22;;;3.13;;
75356;SDS011;63946;51.986;5.930;2023-07-08T07:39:03;5.63;;;2.90;;
75356;SDS011;63946;51.986;5.930;2023-07-08T07:41:35;4.90;;;3.05;;
75356;SDS011;63946;51.986;5.930;2023-07-08T07:44:08;3.65;;;3.05;;
75356;SDS011;63946;51.986;5.930;2023-07-08T07:46:36;4.93;;;2.83;;
75356;SDS011;63946;51.986;5.930;2023-07-08T07:49:08;3.10;;;2.33;;
75356;SDS011;63946;51.986;5.930;2023-07-08T07:51:37;3.30;;;3.00;;
75356;SDS011;63946;51.986;5.930;2023-07-08T07:54:09;4.65;;;3.22;;
75356;SDS011;63946;51.986;5.930;2023-07-08T07:56:38;4.75;;;3.40;;
75356;SDS011;63946;51.986;5.930;2023-07-08T07:59:09;7.72;;;3.15;;
75356;SDS011;63946;51.986;5.930;2023-07-08T08:01:39;6.80;;;3.47;;
75356;SDS011;63946;51.986;5.930;2023-07-08T08:04:09;4.30;;;2.97;;
75356;SDS011;63946;51.986;5.930;2023-07-08T08:06:39;5.18;;;3.17;;
75356;SDS011;63946;51.986;5.930;2023-07-08T08:09:08;5.20;;;3.08;;
75356;SDS011;63946;51.986;5.930;2023-07-08T08:11:50;3.30;;;2.60;;
75356;SDS011;63946;51.986;5.930;2023-07-08T08:14:33;3.63;;;2.65;;
75356;SDS011;63946;51.986;5.930;2023-07-08T08:17:14;3.53;;;2.80;;
75356;SDS011;63946;51.986;5.930;2023-07-08T08:19:46;4.68;;;3.35;;
75356;SDS011;63946;51.986;5.930;2023-07-08T08:22:15;3.65;;;3.20;;
75356;SDS011;63946;51.986;5.930;2023-07-08T08:24:43;5.10;;;3.13;;
75356;SDS011;63946;51.986;5.930;2023-07-08T08:27:13;3.35;;;2.97;;
75356;SDS011;63946;51.986;5.930;2023-07-08T08:29:44;4.57;;;3.45;;
75356;SDS011;63946;51.986;5.930;2023-07-08T08:32:13;7.60;;;3.20;;
75356;SDS011;63946;51.986;5.930;2023-07-08T08:34:44;4.72;;;3.20;;
75356;SDS011;63946;51.986;5.930;2023-07-08T08:37:14;7.55;;;3.72;;
75356;SDS011;63946;51.986;5.930;2023-07-08T08:39:55;5.88;;;3.47;;
75356;SDS011;63946;51.986;5.930;2023-07-08T08:42:39;3.58;;;2.75;;
75356;SDS011;63946;51.986;5.930;2023-07-08T08:45:15;4.50;;;2.90;;
75356;SDS011;63946;51.986;5.930;2023-07-08T08:48:02;4.63;;;3.10;;
75356;SDS011;63946;51.986;5.930;2023-07-08T08:50:47;5.00;;;3.35;;
75356;SDS011;63946;51.986;5.930;2023-07-08T08:53:21;4.97;;;3.10;;
75356;SDS011;63946;51.986;5.930;2023-07-08T09:01:55;4.00;;;3.20;;
75356;SDS011;63946;51.986;5.930;2023-07-08T09:04:28;5.53;;;3.63;;
75356;SDS011;63946;51.986;5.930;2023-07-08T09:07:06;4.00;;;3.05;;
75356;SDS011;63946;51.986;5.930;2023-07-08T09:12:40;5.07;;;3.35;;
75356;SDS011;63946;51.986;5.930;2023-07-08T09:15:12;6.97;;;3.53;;
75356;SDS011;63946;51.986;5.930;2023-07-08T09:17:48;5.15;;;4.45;;
75356;SDS011;63946;51.986;5.930;2023-07-08T09:20:27;5.85;;;3.45;;
75356;SDS011;63946;51.986;5.930;2023-07-08T09:23:15;5.65;;;4.20;;
75356;SDS011;63946;51.986;5.930;2023-07-08T09:25:52;5.93;;;4.15;;
75356;SDS011;63946;51.986;5.930;2023-07-08T09:28:45;6.07;;;3.22;;
75356;SDS011;63946;51.986;5.930;2023-07-08T09:34:06;4.93;;;3.33;;
75356;SDS011;63946;51.986;5.930;2023-07-08T09:36:53;4.43;;;3.42;;
75356;SDS011;63946;51.986;5.930;2023-07-08T09:39:22;6.32;;;4.07;;
75356;SDS011;63946;51.986;5.930;2023-07-08T09:41:55;5.95;;;4.00;;
75356;SDS011;63946;51.986;5.930;2023-07-08T09:44:26;4.82;;;2.92;;
75356;SDS011;63946;51.986;5.930;2023-07-08T09:47:01;5.25;;;3.10;;
75356;SDS011;63946;51.986;5.930;2023-07-08T09:49:33;6.88;;;3.72;;
75356;SDS011;63946;51.986;5.930;2023-07-08T09:52:12;5.47;;;3.65;;
75356;SDS011;63946;51.986;5.930;2023-07-08T09:54:47;5.65;;;3.92;;
75356;SDS011;63946;51.986;5.930;2023-07-08T09:57:32;6.28;;;3.80;;
75356;SDS011;63946;51.986;5.930;2023-07-08T10:00:24;5.85;;;4.07;;
75356;SDS011;63946;51.986;5.930;2023-07-08T10:03:12;5.60;;;3.63;;
75356;SDS011;63946;51.986;5.930;2023-07-08T10:05:53;5.97;;;4.45;;
75356;SDS011;63946;51.986;5.930;2023-07-08T10:08:37;5.18;;;3.83;;
75356;SDS011;63946;51.986;5.930;2023-07-08T10:11:12;6.63;;;3.80;;
75356;SDS011;63946;51.986;5.930;2023-07-08T10:13:57;5.82;;;3.88;;
75356;SDS011;63946;51.986;5.930;2023-07-08T10:16:46;6.30;;;4.15;;
75356;SDS011;63946;51.986;5.930;2023-07-08T10:19:15;6.05;;;4.22;;
75356;SDS011;63946;51.986;5.930;2023-07-08T10:22:05;5.15;;;3.58;;
75356;SDS011;63946;51.986;5.930;2023-07-08T10:27:15;5.85;;;4.07;;
75356;SDS011;63946;51.986;5.930;2023-07-08T10:41:04;5.50;;;4.50;;
75356;SDS011;63946;51.986;5.930;2023-07-08T10:43:44;4.97;;;4.00;;
75356;SDS011;63946;51.986;5.930;2023-07-08T10:49:20;5.78;;;4.05;;
75356;SDS011;63946;51.986;5.930;2023-07-08T10:55:36;7.00;;;5.28;;
75356;SDS011;63946;51.986;5.930;2023-07-08T11:01:39;5.07;;;3.85;;
75356;SDS011;63946;51.986;5.930;2023-07-08T11:09:56;5.63;;;4.38;;
75356;SDS011;63946;51.986;5.930;2023-07-08T11:12:45;6.05;;;4.53;;
75356;SDS011;63946;51.986;5.930;2023-07-08T11:15:26;6.72;;;4.78;;
75356;SDS011;63946;51.986;5.930;2023-07-08T11:18:06;5.60;;;4.57;;
75356;SDS011;63946;51.986;5.930;2023-07-08T11:21:17;5.72;;;4.97;;
75356;SDS011;63946;51.986;5.930;2023-07-08T11:26:50;8.02;;;4.97;;
75356;SDS011;63946;51.986;5.930;2023-07-08T11:32:11;7.38;;;5.13;;
75356;SDS011;63946;51.986;5.930;2023-07-08T11:35:02;5.88;;;4.53;;
75356;SDS011;63946;51.986;5.930;2023-07-08T11:37:34;5.55;;;4.18;;
75356;SDS011;63946;51.986;5.930;2023-07-08T11:40:07;5.82;;;4.38;;
75356;SDS011;63946;51.986;5.930;2023-07-08T11:42:50;5.53;;;4.57;;
75356;SDS011;63946;51.986;5.930;2023-07-08T11:45:30;5.38;;;4.88;;
75356;SDS011;63946;51.986;5.930;2023-07-08T11:51:08;6.85;;;4.18;;
75356;SDS011;63946;51.986;5.930;2023-07-08T11:53:47;6.50;;;4.25;;
75356;SDS011;63946;51.986;5.930;2023-07-08T11:56:27;6.13;;;4.13;;
75356;SDS011;63946;51.986;5.930;2023-07-08T11:59:09;7.47;;;4.65;;
75356;SDS011;63946;51.986;5.930;2023-07-08T12:07:03;6.28;;;4.75;;
75356;SDS011;63946;51.986;5.930;2023-07-08T12:10:13;5.90;;;4.70;;
75356;SDS011;63946;51.986;5.930;2023-07-08T12:12:46;6.65;;;4.75;;
75356;SDS011;63946;51.986;5.930;2023-07-08T12:17:55;6.00;;;4.88;;
75356;SDS011;63946;51.986;5.930;2023-07-08T12:20:32;7.03;;;5.10;;
75356;SDS011;63946;51.986;5.930;2023-07-08T12:23:09;7.05;;;4.80;;
75356;SDS011;63946;51.986;5.930;2023-07-08T12:25:41;8.30;;;4.78;;
75356;SDS011;63946;51.986;5.930;2023-07-08T12:28:10;6.47;;;4.50;;
75356;SDS011;63946;51.986;5.930;2023-07-08T12:30:43;5.95;;;4.47;;
75356;SDS011;63946;51.986;5.930;2023-07-08T12:33:14;6.68;;;4.30;;
75356;SDS011;63946;51.986;5.930;2023-07-08T12:35:51;6.88;;;4.53;;
75356;SDS011;63946;51.986;5.930;2023-07-08T12:38:27;6.55;;;5.25;;
75356;SDS011;63946;51.986;5.930;2023-07-08T12:41:10;7.05;;;4.55;;
75356;SDS011;63946;51.986;5.930;2023-07-08T12:44:08;7.13;;;4.32;;
75356;SDS011;63946;51.986;5.930;2023-07-08T12:46:52;6.68;;;4.65;;
75356;SDS011;63946;51.986;5.930;2023-07-08T12:49:22;5.47;;;4.70;;
75356;SDS011;63946;51.986;5.930;2023-07-08T12:51:55;8.70;;;4.88;;
75356;SDS011;63946;51.986;5.930;2023-07-08T12:54:27;5.45;;;4.35;;
75356;SDS011;63946;51.986;5.930;2023-07-08T12:57:09;6.90;;;5.32;;
75356;SDS011;63946;51.986;5.930;2023-07-08T12:59:40;8.32;;;4.72;;
75356;SDS011;63946;51.986;5.930;2023-07-08T13:02:17;6.80;;;4.47;;
75356;SDS011;63946;51.986;5.930;2023-07-08T13:04:53;7.57;;;5.63;;
75356;SDS011;63946;51.986;5.930;2023-07-08T13:07:33;5.35;;;4.53;;
75356;SDS011;63946;51.986;5.930;2023-07-08T13:10:21;6.68;;;4.50;;
75356;SDS011;63946;51.986;5.930;2023-07-08T13:12:58;6.45;;;4.55;;
75356;SDS011;63946;51.986;5.930;2023-07-08T13:15:39;7.03;;;4.88;;
75356;SDS011;63946;51.986;5.930;2023-07-08T13:18:45;7.43;;;5.13;;
75356;SDS011;63946;51.986;5.930;2023-07-08T13:21:09;7.07;;;5.13;;
75356;SDS011;63946;51.986;5.930;2023-07-08T13:23:45;5.45;;;4.43;;
75356;SDS011;63946;51.986;5.930;2023-07-08T13:26:19;5.70;;;4.13;;
75356;SDS011;63946;51.986;5.930;2023-07-08T13:28:50;6.10;;;4.90;;
75356;SDS011;63946;51.986;5.930;2023-07-08T13:31:33;6.82;;;4.75;;
75356;SDS011;63946;51.986;5.930;2023-07-08T13:34:13;8.48;;;4.78;;
75356;SDS011;63946;51.986;5.930;2023-07-08T13:36:49;8.20;;;5.15;;
75356;SDS011;63946;51.986;5.930;2023-07-08T13:39:25;7.78;;;4.80;;
75356;SDS011;63946;51.986;5.930;2023-07-08T13:42:03;7.57;;;4.38;;
75356;SDS011;63946;51.986;5.930;2023-07-08T13:44:45;6.45;;;5.15;;
75356;SDS011;63946;51.986;5.930;2023-07-08T13:47:28;7.78;;;4.97;;
75356;SDS011;63946;51.986;5.930;2023-07-08T13:50:05;8.63;;;4.88;;
75356;SDS011;63946;51.986;5.930;2023-07-08T13:52:45;6.47;;;4.80;;
75356;SDS011;63946;51.986;5.930;2023-07-08T13:55:18;7.15;;;5.22;;
75356;SDS011;63946;51.986;5.930;2023-07-08T13:57:57;7.38;;;4.43;;
75356;SDS011;63946;51.986;5.930;2023-07-08T14:00:36;8.27;;;5.55;;
75356;SDS011;63946;51.986;5.930;2023-07-08T14:03:10;6.88;;;5.53;;
75356;SDS011;63946;51.986;5.930;2023-07-08T14:05:43;8.13;;;5.55;;
75356;SDS011;63946;51.986;5.930;2023-07-08T14:08:13;8.65;;;5.20;;
75356;SDS011;63946;51.986;5.930;2023-07-08T14:10:44;10.50;;;5.68;;
75356;SDS011;63946;51.986;5.930;2023-07-08T14:13:13;10.38;;;5.57;;
75356;SDS011;63946;51.986;5.930;2023-07-08T14:15:43;6.53;;;4.18;;
75356;SDS011;63946;51.986;5.930;2023-07-08T14:18:21;4.95;;;4.07;;
75356;SDS011;63946;51.986;5.930;2023-07-08T14:20:50;7.15;;;4.93;;
75356;SDS011;63946;51.986;5.930;2023-07-08T14:23:22;7.05;;;5.60;;
75356;SDS011;63946;51.986;5.930;2023-07-08T14:25:53;6.20;;;4.60;;
75356;SDS011;63946;51.986;5.930;2023-07-08T14:28:25;7.82;;;4.75;;
75356;SDS011;63946;51.986;5.930;2023-07-08T14:30:55;8.38;;;4.82;;
75356;SDS011;63946;51.986;5.930;2023-07-08T14:33:24;5.68;;;4.72;;
75356;SDS011;63946;51.986;5.930;2023-07-08T14:35:53;6.30;;;5.07;;
75356;SDS011;63946;51.986;5.930;2023-07-08T14:38:22;9.07;;;5.60;;
75356;SDS011;63946;51.986;5.930;2023-07-08T14:40:54;8.38;;;5.07;;
75356;SDS011;63946;51.986;5.930;2023-07-08T14:43:33;7.00;;;4.95;;
75356;SDS011;63946;51.986;5.930;2023-07-08T14:46:08;6.60;;;4.90;;
75356;SDS011;63946;51.986;5.930;2023-07-08T14:48:38;9.77;;;5.45;;
75356;SDS011;63946;51.986;5.930;2023-07-08T14:51:14;8.45;;;5.47;;
75356;SDS011;63946;51.986;5.930;2023-07-08T14:53:48;8.00;;;5.15;;
75356;SDS011;63946;51.986;5.930;2023-07-08T14:56:17;6.07;;;4.60;;
75356;SDS011;63946;51.986;5.930;2023-07-08T14:58:49;5.93;;;4.07;;
75356;SDS011;63946;51.986;5.930;2023-07-08T15:01:21;5.38;;;4.60;;
75356;SDS011;63946;51.986;5.930;2023-07-08T15:03:56;7.72;;;4.32;;
75356;SDS011;63946;51.986;5.930;2023-07-08T15:06:25;6.28;;;4.65;;
75356;SDS011;63946;51.986;5.930;2023-07-08T15:09:03;6.00;;;4.22;;
75356;SDS011;63946;51.986;5.930;2023-07-08T15:14:05;5.47;;;4.00;;
75356;SDS011;63946;51.986;5.930;2023-07-08T15:16:42;5.28;;;4.07;;
75356;SDS011;63946;51.986;5.930;2023-07-08T15:19:11;7.72;;;4.95;;
75356;SDS011;63946;51.986;5.930;2023-07-08T15:21:42;4.75;;;3.95;;
75356;SDS011;63946;51.986;5.930;2023-07-08T15:24:12;8.65;;;4.47;;
75356;SDS011;63946;51.986;5.930;2023-07-08T15:26:45;6.32;;;3.80;;
75356;SDS011;63946;51.986;5.930;2023-07-08T15:29:19;5.88;;;4.30;;
75356;SDS011;63946;51.986;5.930;2023-07-08T15:31:50;6.10;;;4.55;;
75356;SDS011;63946;51.986;5.930;2023-07-08T15:34:20;6.07;;;4.03;;
75356;SDS011;63946;51.986;5.930;2023-07-08T15:36:50;5.38;;;3.88;;
75356;SDS011;63946;51.986;5.930;2023-07-08T15:39:19;5.95;;;4.45;;
75356;SDS011;63946;51.986;5.930;2023-07-08T15:41:49;5.15;;;4.30;;
75356;SDS011;63946;51.986;5.930;2023-07-08T15:44:19;5.03;;;3.95;;
75356;SDS011;63946;51.986;5.930;2023-07-08T15:46:48;5.72;;;3.90;;
75356;SDS011;63946;51.986;5.930;2023-07-08T15:49:21;6.68;;;4.70;;
75356;SDS011;63946;51.986;5.930;2023-07-08T15:51:55;5.60;;;4.10;;
75356;SDS011;63946;51.986;5.930;2023-07-08T15:54:26;5.75;;;4.18;;
75356;SDS011;63946;51.986;5.930;2023-07-08T15:56:58;6.85;;;3.90;;
75356;SDS011;63946;51.986;5.930;2023-07-08T15:59:30;6.22;;;4.55;;
75356;SDS011;63946;51.986;5.930;2023-07-08T16:02:01;5.25;;;4.10;;
75356;SDS011;63946;51.986;5.930;2023-07-08T16:04:39;7.32;;;4.35;;
75356;SDS011;63946;51.986;5.930;2023-07-08T16:07:09;7.35;;;3.97;;
75356;SDS011;63946;51.986;5.930;2023-07-08T16:09:38;6.45;;;3.80;;
75356;SDS011;63946;51.986;5.930;2023-07-08T16:12:07;4.80;;;3.53;;
75356;SDS011;63946;51.986;5.930;2023-07-08T16:14:39;7.25;;;4.03;;
75356;SDS011;63946;51.986;5.930;2023-07-08T16:17:12;6.03;;;4.18;;
75356;SDS011;63946;51.986;5.930;2023-07-08T16:19:43;5.97;;;3.75;;
75356;SDS011;63946;51.986;5.930;2023-07-08T16:22:14;6.93;;;4.35;;
75356;SDS011;63946;51.986;5.930;2023-07-08T16:24:43;11.63;;;4.22;;
75356;SDS011;63946;51.986;5.930;2023-07-08T16:27:12;5.85;;;3.60;;
75356;SDS011;63946;51.986;5.930;2023-07-08T16:29:41;6.15;;;4.07;;
75356;SDS011;63946;51.986;5.930;2023-07-08T16:32:13;6.18;;;4.20;;
75356;SDS011;63946;51.986;5.930;2023-07-08T16:34:48;6.40;;;4.28;;
75356;SDS011;63946;51.986;5.930;2023-07-08T16:37:17;8.52;;;6.60;;
75356;SDS011;63946;51.986;5.930;2023-07-08T16:39:46;7.28;;;5.55;;
75356;SDS011;63946;51.986;5.930;2023-07-08T16:42:16;8.50;;;4.60;;
75356;SDS011;63946;51.986;5.930;2023-07-08T16:44:45;6.78;;;3.92;;
75356;SDS011;63946;51.986;5.930;2023-07-08T16:47:17;6.03;;;3.80;;
75356;SDS011;63946;51.986;5.930;2023-07-08T16:49:46;4.85;;;3.25;;
75356;SDS011;63946;51.986;5.930;2023-07-08T16:52:15;5.68;;;3.80;;
75356;SDS011;63946;51.986;5.930;2023-07-08T16:54:46;7.15;;;3.97;;
75356;SDS011;63946;51.986;5.930;2023-07-08T16:57:15;7.60;;;3.72;;
75356;SDS011;63946;51.986;5.930;2023-07-08T16:59:44;6.78;;;4.35;;
75356;SDS011;63946;51.986;5.930;2023-07-08T17:02:13;6.80;;;4.13;;
75356;SDS011;63946;51.986;5.930;2023-07-08T17:04:45;6.05;;;4.35;;
75356;SDS011;63946;51.986;5.930;2023-07-08T17:07:20;5.63;;;4.28;;
75356;SDS011;63946;51.986;5.930;2023-07-08T17:09:50;5.10;;;4.20;;
75356;SDS011;63946;51.986;5.930;2023-07-08T17:12:22;5.85;;;4.57;;
75356;SDS011;63946;51.986;5.930;2023-07-08T17:14:53;5.22;;;4.07;;
75356;SDS011;63946;51.986;5.930;2023-07-08T17:17:22;7.13;;;4.25;;
75356;SDS011;63946;51.986;5.930;2023-07-08T17:19:54;5.18;;;4.43;;
75356;SDS011;63946;51.986;5.930;2023-07-08T17:22:24;5.55;;;4.55;;
75356;SDS011;63946;51.986;5.930;2023-07-08T17:24:53;7.03;;;4.72;;
75356;SDS011;63946;51.986;5.930;2023-07-08T17:27:22;7.20;;;5.10;;
75356;SDS011;63946;51.986;5.930;2023-07-08T17:29:51;5.53;;;4.47;;
75356;SDS011;63946;51.986;5.930;2023-07-08T17:32:20;6.38;;;4.45;;
75356;SDS011;63946;51.986;5.930;2023-07-08T17:34:51;9.05;;;4.95;;
75356;SDS011;63946;51.986;5.930;2023-07-08T17:39:50;6.43;;;4.25;;
75356;SDS011;63946;51.986;5.930;2023-07-08T17:42:24;4.75;;;3.85;;
75356;SDS011;63946;51.986;5.930;2023-07-08T17:44:55;6.70;;;4.97;;
75356;SDS011;63946;51.986;5.930;2023-07-08T17:47:24;7.20;;;4.63;;
75356;SDS011;63946;51.986;5.930;2023-07-08T17:49:53;7.20;;;4.95;;
75356;SDS011;63946;51.986;5.930;2023-07-08T17:52:22;6.30;;;5.10;;
75356;SDS011;63946;51.986;5.930;2023-07-08T17:54:51;5.70;;;4.50;;
75356;SDS011;63946;51.986;5.930;2023-07-08T17:57:23;5.75;;;4.63;;
75356;SDS011;63946;51.986;5.930;2023-07-08T17:59:54;5.78;;;4.78;;
75356;SDS011;63946;51.986;5.930;2023-07-08T18:02:22;6.88;;;4.72;;
75356;SDS011;63946;51.986;5.930;2023-07-08T18:04:52;6.40;;;4.55;;
75356;SDS011;63946;51.986;5.930;2023-07-08T18:09:52;6.15;;;4.70;;
75356;SDS011;63946;51.986;5.930;2023-07-08T18:12:24;7.60;;;4.90;;
75356;SDS011;63946;51.986;5.930;2023-07-08T18:14:52;7.97;;;4.57;;
75356;SDS011;63946;51.986;5.930;2023-07-08T18:17:24;7.13;;;4.85;;
75356;SDS011;63946;51.986;5.930;2023-07-08T18:19:53;6.95;;;4.57;;
75356;SDS011;63946;51.986;5.930;2023-07-08T18:22:28;7.50;;;5.53;;
75356;SDS011;63946;51.986;5.930;2023-07-08T18:24:57;6.35;;;5.10;;
75356;SDS011;63946;51.986;5.930;2023-07-08T18:27:26;6.57;;;4.35;;
75356;SDS011;63946;51.986;5.930;2023-07-08T18:29:55;7.97;;;5.47;;
75356;SDS011;63946;51.986;5.930;2023-07-08T18:32:24;6.93;;;5.10;;
75356;SDS011;63946;51.986;5.930;2023-07-08T18:34:58;7.78;;;5.35;;
75356;SDS011;63946;51.986;5.930;2023-07-08T18:37:29;5.95;;;5.00;;
75356;SDS011;63946;51.986;5.930;2023-07-08T18:39:58;5.85;;;4.75;;
75356;SDS011;63946;51.986;5.930;2023-07-08T18:42:27;7.40;;;5.10;;
75356;SDS011;63946;51.986;5.930;2023-07-08T18:44:57;7.00;;;5.28;;
75356;SDS011;63946;51.986;5.930;2023-07-08T18:47:27;7.30;;;5.80;;
75356;SDS011;63946;51.986;5.930;2023-07-08T18:49:56;6.68;;;4.88;;
75356;SDS011;63946;51.986;5.930;2023-07-08T18:52:25;7.60;;;4.82;;
75356;SDS011;63946;51.986;5.930;2023-07-08T18:54:53;6.57;;;5.05;;
75356;SDS011;63946;51.986;5.930;2023-07-08T18:57:29;7.57;;;5.03;;
75356;SDS011;63946;51.986;5.930;2023-07-08T19:00:01;7.28;;;5.43;;
75356;SDS011;63946;51.986;5.930;2023-07-08T19:02:41;10.60;;;5.70;;
75356;SDS011;63946;51.986;5.930;2023-07-08T19:05:17;7.65;;;5.57;;
75356;SDS011;63946;51.986;5.930;2023-07-08T19:07:47;6.93;;;5.15;;
75356;SDS011;63946;51.986;5.930;2023-07-08T19:10:23;7.57;;;5.35;;
75356;SDS011;63946;51.986;5.930;2023-07-08T19:13:01;6.20;;;4.57;;
75356;SDS011;63946;51.986;5.930;2023-07-08T19:15:31;7.18;;;5.47;;
75356;SDS011;63946;51.986;5.930;2023-07-08T19:18:08;6.93;;;4.72;;
75356;SDS011;63946;51.986;5.930;2023-07-08T19:20:40;6.72;;;5.05;;
75356;SDS011;63946;51.986;5.930;2023-07-08T19:23:13;6.95;;;5.70;;
75356;SDS011;63946;51.986;5.930;2023-07-08T19:25:46;6.63;;;5.40;;
75356;SDS011;63946;51.986;5.930;2023-07-08T19:28:15;7.82;;;5.88;;
75356;SDS011;63946;51.986;5.930;2023-07-08T19:30:45;7.32;;;5.90;;
75356;SDS011;63946;51.986;5.930;2023-07-08T19:33:20;6.13;;;4.93;;
75356;SDS011;63946;51.986;5.930;2023-07-08T19:35:53;7.32;;;5.38;;
75356;SDS011;63946;51.986;5.930;2023-07-08T19:38:26;7.28;;;6.07;;
75356;SDS011;63946;51.986;5.930;2023-07-08T19:40:54;7.43;;;5.93;;
75356;SDS011;63946;51.986;5.930;2023-07-08T19:43:25;7.03;;;5.57;;
75356;SDS011;63946;51.986;5.930;2023-07-08T19:45:54;7.15;;;5.95;;
75356;SDS011;63946;51.986;5.930;2023-07-08T19:48:23;8.27;;;5.60;;
75356;SDS011;63946;51.986;5.930;2023-07-08T19:50:54;8.30;;;6.20;;
75356;SDS011;63946;51.986;5.930;2023-07-08T19:53:25;7.03;;;5.88;;
75356;SDS011;63946;51.986;5.930;2023-07-08T19:55:54;6.55;;;5.13;;
75356;SDS011;63946;51.986;5.930;2023-07-08T19:58:23;6.70;;;5.15;;
75356;SDS011;63946;51.986;5.930;2023-07-08T20:00:52;8.00;;;5.10;;
75356;SDS011;63946;51.986;5.930;2023-07-08T20:03:22;6.78;;;5.25;;
75356;SDS011;63946;51.986;5.930;2023-07-08T20:05:51;7.82;;;5.10;;
75356;SDS011;63946;51.986;5.930;2023-07-08T20:08:22;8.13;;;5.55;;
75356;SDS011;63946;51.986;5.930;2023-07-08T20:10:56;6.60;;;5.90;;
75356;SDS011;63946;51.986;5.930;2023-07-08T20:13:26;7.20;;;5.40;;
75356;SDS011;63946;51.986;5.930;2023-07-08T20:15:57;7.53;;;5.30;;
75356;SDS011;63946;51.986;5.930;2023-07-08T20:18:29;8.40;;;4.88;;
75356;SDS011;63946;51.986;5.930;2023-07-08T20:21:05;6.82;;;5.10;;
75356;SDS011;63946;51.986;5.930;2023-07-08T20:23:34;7.70;;;5.47;;
75356;SDS011;63946;51.986;5.930;2023-07-08T20:26:37;9.85;;;6.18;;
75356;SDS011;63946;51.986;5.930;2023-07-08T20:29:01;7.90;;;5.78;;
75356;SDS011;63946;51.986;5.930;2023-07-08T20:31:31;7.82;;;6.03;;
75356;SDS011;63946;51.986;5.930;2023-07-08T20:34:01;7.22;;;5.70;;
75356;SDS011;63946;51.986;5.930;2023-07-08T20:36:30;6.05;;;5.13;;
75356;SDS011;63946;51.986;5.930;2023-07-08T20:39:02;6.97;;;5.68;;
75356;SDS011;63946;51.986;5.930;2023-07-08T20:41:35;6.85;;;4.85;;
75356;SDS011;63946;51.986;5.930;2023-07-08T20:44:14;6.63;;;5.43;;
75356;SDS011;63946;51.986;5.930;2023-07-08T20:46:46;6.80;;;5.30;;
75356;SDS011;63946;51.986;5.930;2023-07-08T20:49:16;6.63;;;5.57;;
75356;SDS011;63946;51.986;5.930;2023-07-08T20:51:58;6.95;;;5.15;;
75356;SDS011;63946;51.986;5.930;2023-07-08T20:54:30;8.45;;;5.63;;
75356;SDS011;63946;51.986;5.930;2023-07-08T20:57:01;6.63;;;5.10;;
75356;SDS011;63946;51.986;5.930;2023-07-08T20:59:30;7.68;;;5.55;;
75356;SDS011;63946;51.986;5.930;2023-07-08T21:02:09;6.50;;;5.10;;
75356;SDS011;63946;51.986;5.930;2023-07-08T21:04:57;6.78;;;5.40;;
75356;SDS011;63946;51.986;5.930;2023-07-08T21:07:26;7.10;;;5.75;;
75356;SDS011;63946;51.986;5.930;2023-07-08T21:09:56;9.18;;;5.95;;
75356;SDS011;63946;51.986;5.930;2023-07-08T21:12:25;6.43;;;4.97;;
75356;SDS011;63946;51.986;5.930;2023-07-08T21:15:00;6.90;;;5.22;;
75356;SDS011;63946;51.986;5.930;2023-07-08T21:17:29;7.07;;;5.40;;
75356;SDS011;63946;51.986;5.930;2023-07-08T21:19:59;8.90;;;5.30;;
75356;SDS011;63946;51.986;5.930;2023-07-08T21:22:32;8.15;;;5.60;;
75356;SDS011;63946;51.986;5.930;2023-07-08T21:25:08;8.80;;;5.78;;
75356;SDS011;63946;51.986;5.930;2023-07-08T21:27:39;6.78;;;5.88;;
75356;SDS011;63946;51.986;5.930;2023-07-08T21:30:15;8.40;;;5.25;;
75356;SDS011;63946;51.986;5.930;2023-07-08T21:32:49;7.63;;;5.43;;
75356;SDS011;63946;51.986;5.930;2023-07-08T21:35:23;9.52;;;5.50;;
75356;SDS011;63946;51.986;5.930;2023-07-08T21:38:02;6.53;;;5.68;;
75356;SDS011;63946;51.986;5.930;2023-07-08T21:40:36;14.80;;;5.45;;
75356;SDS011;63946;51.986;5.930;2023-07-08T21:43:11;7.80;;;5.53;;
75356;SDS011;63946;51.986;5.930;2023-07-08T21:45:42;8.95;;;6.30;;
75356;SDS011;63946;51.986;5.930;2023-07-08T21:48:14;7.72;;;5.38;;
75356;SDS011;63946;51.986;5.930;2023-07-08T21:50:44;7.72;;;6.10;;
75356;SDS011;63946;51.986;5.930;2023-07-08T21:53:20;6.95;;;5.75;;
75356;SDS011;63946;51.986;5.930;2023-07-08T21:55:53;11.80;;;6.18;;
75356;SDS011;63946;51.986;5.930;2023-07-08T21:58:22;7.20;;;5.88;;
75356;SDS011;63946;51.986;5.930;2023-07-08T22:00:53;9.32;;;6.60;;
75356;SDS011;63946;51.986;5.930;2023-07-08T22:03:25;8.88;;;5.43;;
75356;SDS011;63946;51.986;5.930;2023-07-08T22:05:56;8.52;;;5.85;;
75356;SDS011;63946;51.986;5.930;2023-07-08T22:08:26;7.53;;;5.40;;
75356;SDS011;63946;51.986;5.930;2023-07-08T22:10:59;11.13;;;6.68;;
75356;SDS011;63946;51.986;5.930;2023-07-08T22:13:29;9.60;;;6.00;;
75356;SDS011;63946;51.986;5.930;2023-07-08T22:16:03;9.82;;;5.93;;
75356;SDS011;63946;51.986;5.930;2023-07-08T22:18:35;8.48;;;6.35;;
75356;SDS011;63946;51.986;5.930;2023-07-08T22:21:05;6.97;;;4.93;;
75356;SDS011;63946;51.986;5.930;2023-07-08T22:24:06;7.72;;;6.18;;
75356;SDS011;63946;51.986;5.930;2023-07-08T22:26:37;8.38;;;5.95;;
75356;SDS011;63946;51.986;5.930;2023-07-08T22:29:10;8.05;;;5.32;;
75356;SDS011;63946;51.986;5.930;2023-07-08T22:31:40;7.57;;;5.28;;
75356;SDS011;63946;51.986;5.930;2023-07-08T22:34:13;8.23;;;6.20;;
75356;SDS011;63946;51.986;5.930;2023-07-08T22:36:43;8.68;;;5.82;;
75356;SDS011;63946;51.986;5.930;2023-07-08T22:39:16;8.73;;;5.90;;